Flight Track Log - Related Links

Times and Time Zones

All times are in EDT time to prevent confusion due to time zone crossing. See the EJA941 flight status page for this flight to view local times or setup timezone preferences in your user account.

Time Position Orientation Groundspeed Altitude Reporting Facility
EDT Latitude Longitude Course Direction KTS MPH feet Rate Location/Type
Sat 01:03:20 PM 39.0833 -84.4167 142° Southeast 149 171 1,500  Level Cincinnati TRACON
Sat 01:04:15 PM 39.0500 -84.3833 142° Southeast 209 241 2,500 1,101 Climbing Cincinnati TRACON
Sat 01:05:09 PM 39.0167 -84.3333 131° Southeast 228 262 3,500 1,143 Climbing Cincinnati TRACON
Sat 01:05:39 PM 38.9961 -84.3128 142° Southeast 234 269 4,100 1,648 Climbing Indianapolis Center
Sat 01:06:40 PM 38.9561 -84.2506 130° Southeast 229 264 6,000 2,829 Climbing Indianapolis Center
Sat 01:07:42 PM 38.9017 -84.1481 124° Southeast 291 335 9,900 3,220 Climbing Indianapolis Center
Sat 01:08:43 PM 38.8761 -84.0389 107° East 320 368 12,600 1,805 Climbing Indianapolis Center
Sat 01:09:45 PM 38.8494 -83.9117 105° East 371 427 13,600 1,210 Climbing Indianapolis Center
Sat 01:10:47 PM 38.8189 -83.7719 106° East 405 466 15,100 1,561 Climbing Indianapolis Center
Sat 01:11:48 PM 38.8364 -83.6264 81° East 418 481 16,800 1,756 Climbing Indianapolis Center
Sat 01:12:50 PM 38.8758 -83.4881 70° East 417 480 18,700 1,902 Climbing Indianapolis Center
Sat 01:13:51 PM 38.9133 -83.3517 71° East 410 472 20,700 1,902 Climbing Indianapolis Center
Sat 01:14:53 PM 38.9606 -83.1842 70° East 414 476 22,600 1,122 Climbing Indianapolis Center
Sat 01:15:54 PM 39.0022 -83.0269 71° East 444 511 23,000 195 Climbing Indianapolis Center
Sat 01:16:56 PM 39.0481 -82.8597 71° East 484 557 23,000  Level Indianapolis Center
Sat 01:17:57 PM 39.0956 -82.6864 71° East 507 583 23,000  Level Indianapolis Center
Sat 01:18:59 PM 39.1422 -82.5117 71° East 512 589 23,000  Level Indianapolis Center
Sat 01:20:00 PM 39.1889 -82.3397 71° East 509 586 23,000  Level Indianapolis Center
Sat 01:21:02 PM 39.2344 -82.1694 71° East 503 579 23,000  Level Indianapolis Center
Sat 01:22:43 PM 39.3114 -81.8747 71° East 499 574 23,000  Level Cleveland Center
Sat 01:23:45 PM 39.3556 -81.7058 71° East 499 574 23,000  Level Cleveland Center
Sat 01:24:46 PM 39.3997 -81.5358 71° East 499 574 23,000 -195 Level Cleveland Center
Sat 01:25:48 PM 39.4636 -81.3647 64° Northeast 508 585 22,600 -976 Descending Cleveland Center
Sat 01:26:49 PM 39.5681 -81.2508 40° Northeast 495 570 21,000 -780 Descending Cleveland Center
Sat 01:27:51 PM 39.6742 -81.1472 37° Northeast 480 552 21,000 -1,024 Level Cleveland Center
Sat 01:28:52 PM 39.7825 -81.0464 36° Northeast 480 552 18,900 -2,098 Descending Cleveland Center
Sat 01:29:54 PM 39.8842 -80.9461 37° Northeast 456 525 16,700 -2,439 Descending Cleveland Center
Sat 01:30:55 PM 39.9956 -80.8386 36° Northeast 416 479 13,900 -2,732 Descending Cleveland Center
Sat 01:31:57 PM 40.0825 -80.7344 42° Northeast 423 487 11,100 -1,951 Descending Cleveland Center
Sat 01:32:58 PM 40.1297 -80.6033 65° Northeast 425 489 9,900 -585 Descending Cleveland Center
Sat 01:34:00 PM 40.1628 -80.4658 72° East 402 463 9,900 -488 Level Cleveland Center
Sat 01:35:01 PM 40.1903 -80.3575 72° East 323 372 8,900 -1,317 Descending Cleveland Center
Sat 01:36:03 PM 40.2169 -80.2558 71° East 302 348 7,200 -1,902 Descending Cleveland Center
Sat 01:37:04 PM 40.2483 -80.1378 71° East 293 337 5,000 -1,756 Descending Cleveland Center
Sat 01:38:06 PM 40.2494 -80.0433 89° East 270 311 3,600 -1,113 Descending Cleveland Center
Sat 01:39:08 PM 40.2675 -79.9661 73° East 240 276 2,700 -439 Descending Cleveland Center
Sat 01:40:09 PM 40.2950 -79.8997 61° Northeast 223 257 2,700 -146 Level Cleveland Center
Sat 01:41:11 PM 40.3361 -79.8703 29° Northeast 187 215 2,400 -537 Descending Cleveland Center
Sat 01:42:12 PM 40.3556 -79.9039 307° West 165 190 1,600 -585 Descending Cleveland Center
Sat 01:43:14 PM 40.3556 -79.9633 270° West 157 181 1,200 -387 Descending Cleveland Center

Login

Don't have an account? Register now (free) for customized features, flight alerts, and more!